sensor_id;sensor_type;location;lat;lon;timestamp;temperature;humidity
2897;DHT22;1458;49.728;9.228;2023-12-20T00:00:05;6.00;99.90
2897;DHT22;1458;49.728;9.228;2023-12-20T00:02:33;6.00;99.90
2897;DHT22;1458;49.728;9.228;2023-12-20T00:05:01;6.00;99.90
2897;DHT22;1458;49.728;9.228;2023-12-20T00:07:28;6.10;99.90
2897;DHT22;1458;49.728;9.228;2023-12-20T00:09:56;6.10;99.90
2897;DHT22;1458;49.728;9.228;2023-12-20T00:12:23;6.00;99.90
2897;DHT22;1458;49.728;9.228;2023-12-20T00:14:50;6.10;99.90
2897;DHT22;1458;49.728;9.228;2023-12-20T00:17:18;6.00;99.90
2897;DHT22;1458;49.728;9.228;2023-12-20T00:19:46;6.00;99.90
2897;DHT22;1458;49.728;9.228;2023-12-20T00:22:13;6.10;99.90
2897;DHT22;1458;49.728;9.228;2023-12-20T00:24:41;6.10;99.90
2897;DHT22;1458;49.728;9.228;2023-12-20T00:27:08;6.20;99.90
2897;DHT22;1458;49.728;9.228;2023-12-20T00:29:36;6.10;99.90
2897;DHT22;1458;49.728;9.228;2023-12-20T00:32:04;6.00;99.90
2897;DHT22;1458;49.728;9.228;2023-12-20T00:34:33;6.00;99.90
2897;DHT22;1458;49.728;9.228;2023-12-20T00:37:01;6.00;99.90
2897;DHT22;1458;49.728;9.228;2023-12-20T00:39:28;6.00;99.90
2897;DHT22;1458;49.728;9.228;2023-12-20T00:41:56;6.00;99.90
2897;DHT22;1458;49.728;9.228;2023-12-20T00:44:23;6.00;99.90
2897;DHT22;1458;49.728;9.228;2023-12-20T00:46:51;6.00;99.90
2897;DHT22;1458;49.728;9.228;2023-12-20T00:49:18;5.90;99.90
2897;DHT22;1458;49.728;9.228;2023-12-20T00:51:47;5.90;99.90
2897;DHT22;1458;49.728;9.228;2023-12-20T00:54:16;5.90;99.90
2897;DHT22;1458;49.728;9.228;2023-12-20T00:56:44;5.80;99.90
2897;DHT22;1458;49.728;9.228;2023-12-20T00:59:11;5.80;99.90
2897;DHT22;1458;49.728;9.228;2023-12-20T01:01:38;5.80;99.90
2897;DHT22;1458;49.728;9.228;2023-12-20T01:04:06;5.80;99.90
2897;DHT22;1458;49.728;9.228;2023-12-20T01:06:33;5.80;99.90
2897;DHT22;1458;49.728;9.228;2023-12-20T01:09:02;5.80;99.90
2897;DHT22;1458;49.728;9.228;2023-12-20T01:11:30;5.80;99.90
2897;DHT22;1458;49.728;9.228;2023-12-20T01:13:58;5.80;99.90
2897;DHT22;1458;49.728;9.228;2023-12-20T01:16:25;5.80;99.90
2897;DHT22;1458;49.728;9.228;2023-12-20T01:18:53;5.80;99.90
2897;DHT22;1458;49.728;9.228;2023-12-20T01:21:20;5.80;99.90
2897;DHT22;1458;49.728;9.228;2023-12-20T01:23:48;5.80;99.90
2897;DHT22;1458;49.728;9.228;2023-12-20T01:26:16;5.70;99.90
2897;DHT22;1458;49.728;9.228;2023-12-20T01:28:44;5.70;99.90
2897;DHT22;1458;49.728;9.228;2023-12-20T01:31:11;5.80;99.90
2897;DHT22;1458;49.728;9.228;2023-12-20T01:33:39;5.80;99.90
2897;DHT22;1458;49.728;9.228;2023-12-20T01:36:06;5.80;99.90
2897;DHT22;1458;49.728;9.228;2023-12-20T01:38:37;5.80;99.90
2897;DHT22;1458;49.728;9.228;2023-12-20T01:41:04;5.80;99.90
2897;DHT22;1458;49.728;9.228;2023-12-20T01:43:34;5.70;99.90
2897;DHT22;1458;49.728;9.228;2023-12-20T01:46:01;5.70;99.90
2897;DHT22;1458;49.728;9.228;2023-12-20T01:48:29;5.70;99.90
2897;DHT22;1458;49.728;9.228;2023-12-20T01:50:58;5.70;99.90
2897;DHT22;1458;49.728;9.228;2023-12-20T01:53:27;5.80;99.90
2897;DHT22;1458;49.728;9.228;2023-12-20T01:55:57;5.80;99.90
2897;DHT22;1458;49.728;9.228;2023-12-20T01:58:26;5.70;99.90
2897;DHT22;1458;49.728;9.228;2023-12-20T02:00:55;5.70;99.90
2897;DHT22;1458;49.728;9.228;2023-12-20T02:03:22;5.70;99.90
2897;DHT22;1458;49.728;9.228;2023-12-20T02:05:50;5.70;99.90
2897;DHT22;1458;49.728;9.228;2023-12-20T02:08:18;5.70;99.90
2897;DHT22;1458;49.728;9.228;2023-12-20T02:10:45;5.60;99.90
2897;DHT22;1458;49.728;9.228;2023-12-20T02:13:13;5.60;99.90
2897;DHT22;1458;49.728;9.228;2023-12-20T02:15:40;5.60;99.90
2897;DHT22;1458;49.728;9.228;2023-12-20T02:18:12;5.60;99.90
2897;DHT22;1458;49.728;9.228;2023-12-20T02:20:41;5.60;99.90
2897;DHT22;1458;49.728;9.228;2023-12-20T02:23:09;5.50;99.90
2897;DHT22;1458;49.728;9.228;2023-12-20T02:25:37;5.60;99.90
2897;DHT22;1458;49.728;9.228;2023-12-20T02:28:05;5.60;99.90
2897;DHT22;1458;49.728;9.228;2023-12-20T02:30:33;5.50;99.90
2897;DHT22;1458;49.728;9.228;2023-12-20T02:33:01;5.50;99.90
2897;DHT22;1458;49.728;9.228;2023-12-20T02:35:31;5.50;99.90
2897;DHT22;1458;49.728;9.228;2023-12-20T02:37:58;5.50;99.90
2897;DHT22;1458;49.728;9.228;2023-12-20T02:40:27;5.50;99.90
2897;DHT22;1458;49.728;9.228;2023-12-20T02:42:54;5.50;99.90
2897;DHT22;1458;49.728;9.228;2023-12-20T02:45:22;5.40;99.90
2897;DHT22;1458;49.728;9.228;2023-12-20T02:47:52;5.50;99.90
2897;DHT22;1458;49.728;9.228;2023-12-20T02:50:20;5.50;99.90
2897;DHT22;1458;49.728;9.228;2023-12-20T02:52:48;5.50;99.90
2897;DHT22;1458;49.728;9.228;2023-12-20T02:55:15;5.50;99.90
2897;DHT22;1458;49.728;9.228;2023-12-20T02:57:44;5.50;99.90
2897;DHT22;1458;49.728;9.228;2023-12-20T03:00:13;5.40;99.90
2897;DHT22;1458;49.728;9.228;2023-12-20T03:02:40;5.30;99.90
2897;DHT22;1458;49.728;9.228;2023-12-20T03:05:08;5.40;99.90
2897;DHT22;1458;49.728;9.228;2023-12-20T03:07:37;5.40;99.90
2897;DHT22;1458;49.728;9.228;2023-12-20T03:10:05;5.50;99.90
2897;DHT22;1458;49.728;9.228;2023-12-20T03:12:35;5.40;99.90
2897;DHT22;1458;49.728;9.228;2023-12-20T03:15:04;5.40;99.90
2897;DHT22;1458;49.728;9.228;2023-12-20T03:17:32;5.40;99.90
2897;DHT22;1458;49.728;9.228;2023-12-20T03:19:59;5.30;99.90
2897;DHT22;1458;49.728;9.228;2023-12-20T03:22:27;5.30;99.90
2897;DHT22;1458;49.728;9.228;2023-12-20T03:24:54;5.40;99.90
2897;DHT22;1458;49.728;9.228;2023-12-20T03:27:22;5.40;99.90
2897;DHT22;1458;49.728;9.228;2023-12-20T03:29:49;5.40;99.90
2897;DHT22;1458;49.728;9.228;2023-12-20T03:32:18;5.40;99.90
2897;DHT22;1458;49.728;9.228;2023-12-20T03:34:46;5.40;99.90
2897;DHT22;1458;49.728;9.228;2023-12-20T03:37:14;5.40;99.90
2897;DHT22;1458;49.728;9.228;2023-12-20T03:39:41;5.40;99.90
2897;DHT22;1458;49.728;9.228;2023-12-20T03:42:08;5.50;99.90
2897;DHT22;1458;49.728;9.228;2023-12-20T03:44:38;5.50;99.90
2897;DHT22;1458;49.728;9.228;2023-12-20T03:47:06;5.50;99.90
2897;DHT22;1458;49.728;9.228;2023-12-20T03:49:34;5.50;99.90
2897;DHT22;1458;49.728;9.228;2023-12-20T03:52:03;5.50;99.90
2897;DHT22;1458;49.728;9.228;2023-12-20T03:54:34;5.50;99.90
2897;DHT22;1458;49.728;9.228;2023-12-20T03:57:03;5.60;99.90
2897;DHT22;1458;49.728;9.228;2023-12-20T03:59:35;5.60;99.90
2897;DHT22;1458;49.728;9.228;2023-12-20T04:02:03;5.50;99.90
2897;DHT22;1458;49.728;9.228;2023-12-20T04:04:31;5.50;99.90
2897;DHT22;1458;49.728;9.228;2023-12-20T04:07:00;5.60;99.90
2897;DHT22;1458;49.728;9.228;2023-12-20T04:09:27;5.60;99.90
2897;DHT22;1458;49.728;9.228;2023-12-20T04:11:54;5.70;99.90
2897;DHT22;1458;49.728;9.228;2023-12-20T04:14:22;5.60;99.90
2897;DHT22;1458;49.728;9.228;2023-12-20T04:16:50;5.70;99.90
2897;DHT22;1458;49.728;9.228;2023-12-20T04:19:18;5.70;99.90
2897;DHT22;1458;49.728;9.228;2023-12-20T04:21:46;5.70;99.90
2897;DHT22;1458;49.728;9.228;2023-12-20T04:24:14;5.70;99.90
2897;DHT22;1458;49.728;9.228;2023-12-20T04:26:44;5.70;99.90
2897;DHT22;1458;49.728;9.228;2023-12-20T04:29:15;5.70;99.90
2897;DHT22;1458;49.728;9.228;2023-12-20T04:31:42;5.80;99.90
2897;DHT22;1458;49.728;9.228;2023-12-20T04:34:10;5.80;99.90
2897;DHT22;1458;49.728;9.228;2023-12-20T04:36:37;5.80;99.90
2897;DHT22;1458;49.728;9.228;2023-12-20T04:39:05;5.90;99.90
2897;DHT22;1458;49.728;9.228;2023-12-20T04:41:34;5.90;99.90
2897;DHT22;1458;49.728;9.228;2023-12-20T04:44:01;5.90;99.90
2897;DHT22;1458;49.728;9.228;2023-12-20T04:46:29;5.90;99.90
2897;DHT22;1458;49.728;9.228;2023-12-20T04:48:56;5.90;99.90
2897;DHT22;1458;49.728;9.228;2023-12-20T04:51:24;5.90;99.90
2897;DHT22;1458;49.728;9.228;2023-12-20T04:53:51;5.90;99.90
2897;DHT22;1458;49.728;9.228;2023-12-20T04:56:19;6.00;99.90
2897;DHT22;1458;49.728;9.228;2023-12-20T04:58:47;5.90;99.90
2897;DHT22;1458;49.728;9.228;2023-12-20T05:01:15;5.90;99.90
2897;DHT22;1458;49.728;9.228;2023-12-20T05:03:42;5.90;99.90
2897;DHT22;1458;49.728;9.228;2023-12-20T05:06:10;5.90;99.90
2897;DHT22;1458;49.728;9.228;2023-12-20T05:08:37;5.90;99.90
2897;DHT22;1458;49.728;9.228;2023-12-20T05:11:05;5.80;99.90
2897;DHT22;1458;49.728;9.228;2023-12-20T05:13:33;5.90;99.90
2897;DHT22;1458;49.728;9.228;2023-12-20T05:16:02;5.90;99.90
2897;DHT22;1458;49.728;9.228;2023-12-20T05:18:30;5.90;99.90
2897;DHT22;1458;49.728;9.228;2023-12-20T05:20:57;6.00;99.90
2897;DHT22;1458;49.728;9.228;2023-12-20T05:23:25;6.00;99.90
2897;DHT22;1458;49.728;9.228;2023-12-20T05:25:52;6.10;99.90
2897;DHT22;1458;49.728;9.228;2023-12-20T05:28:20;6.10;99.90
2897;DHT22;1458;49.728;9.228;2023-12-20T05:30:47;6.10;99.90
2897;DHT22;1458;49.728;9.228;2023-12-20T05:33:16;6.10;99.90
2897;DHT22;1458;49.728;9.228;2023-12-20T05:35:44;6.10;99.90
2897;DHT22;1458;49.728;9.228;2023-12-20T05:38:11;6.10;99.90
2897;DHT22;1458;49.728;9.228;2023-12-20T05:40:39;6.20;99.90
2897;DHT22;1458;49.728;9.228;2023-12-20T05:43:06;6.30;99.90
2897;DHT22;1458;49.728;9.228;2023-12-20T05:45:34;6.20;99.90
2897;DHT22;1458;49.728;9.228;2023-12-20T05:48:02;6.20;99.90
2897;DHT22;1458;49.728;9.228;2023-12-20T05:50:31;6.20;99.90
2897;DHT22;1458;49.728;9.228;2023-12-20T05:53:00;6.30;99.90
2897;DHT22;1458;49.728;9.228;2023-12-20T05:55:28;6.30;99.90
2897;DHT22;1458;49.728;9.228;2023-12-20T05:57:58;6.30;99.90
2897;DHT22;1458;49.728;9.228;2023-12-20T06:00:25;6.20;99.90
2897;DHT22;1458;49.728;9.228;2023-12-20T06:02:53;6.20;99.90
2897;DHT22;1458;49.728;9.228;2023-12-20T06:05:20;6.20;99.90
2897;DHT22;1458;49.728;9.228;2023-12-20T06:07:49;6.20;99.90
2897;DHT22;1458;49.728;9.228;2023-12-20T06:10:17;6.20;99.90
2897;DHT22;1458;49.728;9.228;2023-12-20T06:12:45;6.30;99.90
2897;DHT22;1458;49.728;9.228;2023-12-20T06:15:15;6.30;99.90
2897;DHT22;1458;49.728;9.228;2023-12-20T06:17:43;6.30;99.90
2897;DHT22;1458;49.728;9.228;2023-12-20T06:20:12;6.30;99.90
2897;DHT22;1458;49.728;9.228;2023-12-20T06:22:40;6.40;99.90
2897;DHT22;1458;49.728;9.228;2023-12-20T06:25:09;6.30;99.90
2897;DHT22;1458;49.728;9.228;2023-12-20T06:27:36;6.30;99.90
2897;DHT22;1458;49.728;9.228;2023-12-20T06:30:04;6.20;99.90
2897;DHT22;1458;49.728;9.228;2023-12-20T06:32:35;6.20;99.90
2897;DHT22;1458;49.728;9.228;2023-12-20T06:35:04;6.20;99.90
2897;DHT22;1458;49.728;9.228;2023-12-20T06:37:32;6.20;99.90
2897;DHT22;1458;49.728;9.228;2023-12-20T06:40:00;6.20;99.90
2897;DHT22;1458;49.728;9.228;2023-12-20T06:42:29;6.20;99.90
2897;DHT22;1458;49.728;9.228;2023-12-20T06:44:56;6.20;99.90
2897;DHT22;1458;49.728;9.228;2023-12-20T06:47:25;6.10;99.90
2897;DHT22;1458;49.728;9.228;2023-12-20T06:49:53;5.90;99.90
2897;DHT22;1458;49.728;9.228;2023-12-20T06:52:20;5.80;99.90
2897;DHT22;1458;49.728;9.228;2023-12-20T06:54:48;5.80;99.90
2897;DHT22;1458;49.728;9.228;2023-12-20T06:57:16;5.60;99.90
2897;DHT22;1458;49.728;9.228;2023-12-20T06:59:45;5.40;99.90
2897;DHT22;1458;49.728;9.228;2023-12-20T07:02:13;5.20;99.90
2897;DHT22;1458;49.728;9.228;2023-12-20T07:04:41;4.90;99.90
2897;DHT22;1458;49.728;9.228;2023-12-20T07:07:08;4.80;99.90
2897;DHT22;1458;49.728;9.228;2023-12-20T07:09:36;4.70;99.90
2897;DHT22;1458;49.728;9.228;2023-12-20T07:12:05;4.60;99.90
2897;DHT22;1458;49.728;9.228;2023-12-20T07:14:33;4.50;99.90
2897;DHT22;1458;49.728;9.228;2023-12-20T07:17:05;4.50;99.90
2897;DHT22;1458;49.728;9.228;2023-12-20T07:19:37;4.50;99.90
2897;DHT22;1458;49.728;9.228;2023-12-20T07:22:06;4.30;99.90
2897;DHT22;1458;49.728;9.228;2023-12-20T07:24:34;4.30;99.90
2897;DHT22;1458;49.728;9.228;2023-12-20T07:27:02;4.20;99.90
2897;DHT22;1458;49.728;9.228;2023-12-20T07:29:30;4.00;99.90
2897;DHT22;1458;49.728;9.228;2023-12-20T07:31:57;4.10;99.90
2897;DHT22;1458;49.728;9.228;2023-12-20T07:34:26;4.10;99.90
2897;DHT22;1458;49.728;9.228;2023-12-20T07:36:54;4.20;99.90
2897;DHT22;1458;49.728;9.228;2023-12-20T07:39:21;4.10;99.90
2897;DHT22;1458;49.728;9.228;2023-12-20T07:41:49;4.10;99.90
2897;DHT22;1458;49.728;9.228;2023-12-20T07:44:17;4.20;99.90
2897;DHT22;1458;49.728;9.228;2023-12-20T07:46:44;4.30;99.90
2897;DHT22;1458;49.728;9.228;2023-12-20T07:49:12;4.20;99.90
2897;DHT22;1458;49.728;9.228;2023-12-20T07:51:41;4.10;99.90
2897;DHT22;1458;49.728;9.228;2023-12-20T07:54:09;4.10;99.90
2897;DHT22;1458;49.728;9.228;2023-12-20T07:56:36;4.10;99.90
2897;DHT22;1458;49.728;9.228;2023-12-20T07:59:05;4.00;99.90
2897;DHT22;1458;49.728;9.228;2023-12-20T08:01:33;4.10;99.90
2897;DHT22;1458;49.728;9.228;2023-12-20T08:04:00;4.10;99.90
2897;DHT22;1458;49.728;9.228;2023-12-20T08:06:28;4.10;99.90
2897;DHT22;1458;49.728;9.228;2023-12-20T08:08:57;4.40;99.90
2897;DHT22;1458;49.728;9.228;2023-12-20T08:11:24;4.30;99.90
2897;DHT22;1458;49.728;9.228;2023-12-20T08:13:52;4.50;99.90
2897;DHT22;1458;49.728;9.228;2023-12-20T08:16:19;4.70;99.90
2897;DHT22;1458;49.728;9.228;2023-12-20T08:18:47;4.80;99.90
2897;DHT22;1458;49.728;9.228;2023-12-20T08:21:15;5.00;99.90
2897;DHT22;1458;49.728;9.228;2023-12-20T08:23:45;5.10;99.90
2897;DHT22;1458;49.728;9.228;2023-12-20T08:26:18;5.20;99.90
2897;DHT22;1458;49.728;9.228;2023-12-20T08:28:48;5.30;99.90
2897;DHT22;1458;49.728;9.228;2023-12-20T08:31:16;5.50;99.90
2897;DHT22;1458;49.728;9.228;2023-12-20T08:33:48;5.60;99.90
2897;DHT22;1458;49.728;9.228;2023-12-20T08:36:16;5.70;99.90
2897;DHT22;1458;49.728;9.228;2023-12-20T08:38:44;5.70;99.90
2897;DHT22;1458;49.728;9.228;2023-12-20T08:41:13;5.70;99.90
2897;DHT22;1458;49.728;9.228;2023-12-20T08:43:42;5.80;99.20
2897;DHT22;1458;49.728;9.228;2023-12-20T08:46:09;5.90;98.30
2897;DHT22;1458;49.728;9.228;2023-12-20T08:48:37;6.00;98.40
2897;DHT22;1458;49.728;9.228;2023-12-20T08:51:04;6.10;96.80
2897;DHT22;1458;49.728;9.228;2023-12-20T08:53:34;6.20;96.00
2897;DHT22;1458;49.728;9.228;2023-12-20T08:56:01;6.20;96.00
2897;DHT22;1458;49.728;9.228;2023-12-20T08:58:29;6.20;94.70
2897;DHT22;1458;49.728;9.228;2023-12-20T09:00:58;6.30;94.30
2897;DHT22;1458;49.728;9.228;2023-12-20T09:03:25;6.30;94.10
2897;DHT22;1458;49.728;9.228;2023-12-20T09:05:53;6.30;94.50
2897;DHT22;1458;49.728;9.228;2023-12-20T09:08:20;6.40;93.60
2897;DHT22;1458;49.728;9.228;2023-12-20T09:10:48;6.40;92.60
2897;DHT22;1458;49.728;9.228;2023-12-20T09:13:15;6.40;92.60
2897;DHT22;1458;49.728;9.228;2023-12-20T09:15:43;6.40;93.10
2897;DHT22;1458;49.728;9.228;2023-12-20T09:18:12;6.40;93.20
2897;DHT22;1458;49.728;9.228;2023-12-20T09:20:39;6.40;92.40
2897;DHT22;1458;49.728;9.228;2023-12-20T09:23:07;6.40;93.20
2897;DHT22;1458;49.728;9.228;2023-12-20T09:25:34;6.50;93.10
2897;DHT22;1458;49.728;9.228;2023-12-20T09:28:02;6.50;92.30
2897;DHT22;1458;49.728;9.228;2023-12-20T09:30:30;6.50;92.50
2897;DHT22;1458;49.728;9.228;2023-12-20T09:32:57;6.60;92.20
2897;DHT22;1458;49.728;9.228;2023-12-20T09:35:26;6.60;91.80
2897;DHT22;1458;49.728;9.228;2023-12-20T09:37:53;6.60;91.50
2897;DHT22;1458;49.728;9.228;2023-12-20T09:40:22;6.70;91.20
2897;DHT22;1458;49.728;9.228;2023-12-20T09:42:56;6.80;90.80
2897;DHT22;1458;49.728;9.228;2023-12-20T09:45:25;6.80;90.80
2897;DHT22;1458;49.728;9.228;2023-12-20T09:47:53;6.90;91.20
2897;DHT22;1458;49.728;9.228;2023-12-20T09:50:21;7.00;90.30
2897;DHT22;1458;49.728;9.228;2023-12-20T09:52:51;7.00;90.10
2897;DHT22;1458;49.728;9.228;2023-12-20T09:55:22;7.10;88.50
2897;DHT22;1458;49.728;9.228;2023-12-20T09:57:49;7.10;89.30
2897;DHT22;1458;49.728;9.228;2023-12-20T10:00:18;7.10;89.00
2897;DHT22;1458;49.728;9.228;2023-12-20T10:02:50;7.10;88.00
2897;DHT22;1458;49.728;9.228;2023-12-20T10:05:27;7.00;87.60
2897;DHT22;1458;49.728;9.228;2023-12-20T10:07:56;6.90;88.50
2897;DHT22;1458;49.728;9.228;2023-12-20T10:10:25;7.00;88.30
2897;DHT22;1458;49.728;9.228;2023-12-20T10:13:02;7.10;88.40
2897;DHT22;1458;49.728;9.228;2023-12-20T10:15:32;7.10;87.10
2897;DHT22;1458;49.728;9.228;2023-12-20T10:18:00;7.20;88.30
2897;DHT22;1458;49.728;9.228;2023-12-20T10:20:28;7.30;87.30
2897;DHT22;1458;49.728;9.228;2023-12-20T10:22:58;7.20;87.80
2897;DHT22;1458;49.728;9.228;2023-12-20T10:25:26;7.10;88.60
2897;DHT22;1458;49.728;9.228;2023-12-20T10:28:09;7.10;87.30
2897;DHT22;1458;49.728;9.228;2023-12-20T10:30:37;7.20;87.70
2897;DHT22;1458;49.728;9.228;2023-12-20T10:33:06;7.20;87.30
2897;DHT22;1458;49.728;9.228;2023-12-20T10:35:34;7.20;86.40
2897;DHT22;1458;49.728;9.228;2023-12-20T10:38:05;7.30;87.00
2897;DHT22;1458;49.728;9.228;2023-12-20T10:40:35;7.40;86.80
2897;DHT22;1458;49.728;9.228;2023-12-20T10:43:04;7.40;86.70
2897;DHT22;1458;49.728;9.228;2023-12-20T10:45:32;7.50;86.60
2897;DHT22;1458;49.728;9.228;2023-12-20T10:48:00;7.60;86.30
2897;DHT22;1458;49.728;9.228;2023-12-20T10:50:29;7.90;84.80
2897;DHT22;1458;49.728;9.228;2023-12-20T10:52:58;8.20;84.30
2897;DHT22;1458;49.728;9.228;2023-12-20T10:55:27;8.20;82.70
2897;DHT22;1458;49.728;9.228;2023-12-20T10:58:01;8.30;81.40
2897;DHT22;1458;49.728;9.228;2023-12-20T11:00:31;8.20;81.20
2897;DHT22;1458;49.728;9.228;2023-12-20T11:03:00;8.20;80.50
2897;DHT22;1458;49.728;9.228;2023-12-20T11:05:36;8.30;79.70
2897;DHT22;1458;49.728;9.228;2023-12-20T11:08:13;8.10;79.90
2897;DHT22;1458;49.728;9.228;2023-12-20T11:10:51;8.00;80.40
2897;DHT22;1458;49.728;9.228;2023-12-20T11:13:26;7.80;81.50
2897;DHT22;1458;49.728;9.228;2023-12-20T11:15:57;7.60;80.40
2897;DHT22;1458;49.728;9.228;2023-12-20T11:18:28;7.50;81.50
2897;DHT22;1458;49.728;9.228;2023-12-20T11:21:00;7.50;80.80
2897;DHT22;1458;49.728;9.228;2023-12-20T11:23:30;7.50;81.00
2897;DHT22;1458;49.728;9.228;2023-12-20T11:26:01;7.70;80.90
2897;DHT22;1458;49.728;9.228;2023-12-20T11:28:30;7.60;81.00
2897;DHT22;1458;49.728;9.228;2023-12-20T11:30:58;7.70;81.10
2897;DHT22;1458;49.728;9.228;2023-12-20T11:33:30;7.50;81.00
2897;DHT22;1458;49.728;9.228;2023-12-20T11:35:59;7.50;81.00
2897;DHT22;1458;49.728;9.228;2023-12-20T11:38:36;7.60;81.10
2897;DHT22;1458;49.728;9.228;2023-12-20T11:41:06;7.60;80.40
2897;DHT22;1458;49.728;9.228;2023-12-20T11:43:36;7.70;79.40
2897;DHT22;1458;49.728;9.228;2023-12-20T11:46:04;7.80;79.20
2897;DHT22;1458;49.728;9.228;2023-12-20T11:48:35;7.80;79.70
2897;DHT22;1458;49.728;9.228;2023-12-20T11:51:09;7.80;79.30
2897;DHT22;1458;49.728;9.228;2023-12-20T11:53:37;7.90;79.30
2897;DHT22;1458;49.728;9.228;2023-12-20T11:56:06;7.90;79.70
2897;DHT22;1458;49.728;9.228;2023-12-20T11:58:34;8.00;78.20
2897;DHT22;1458;49.728;9.228;2023-12-20T12:01:02;8.00;78.30
2897;DHT22;1458;49.728;9.228;2023-12-20T12:03:33;8.10;76.10
2897;DHT22;1458;49.728;9.228;2023-12-20T12:06:00;8.00;76.00
2897;DHT22;1458;49.728;9.228;2023-12-20T12:08:30;8.00;77.00
2897;DHT22;1458;49.728;9.228;2023-12-20T12:10:58;7.80;75.80
2897;DHT22;1458;49.728;9.228;2023-12-20T12:13:27;7.80;76.00
2897;DHT22;1458;49.728;9.228;2023-12-20T12:15:54;7.70;76.20
2897;DHT22;1458;49.728;9.228;2023-12-20T12:18:23;7.60;77.10
2897;DHT22;1458;49.728;9.228;2023-12-20T12:20:51;7.60;76.80
2897;DHT22;1458;49.728;9.228;2023-12-20T12:23:27;7.50;75.60
2897;DHT22;1458;49.728;9.228;2023-12-20T12:25:55;7.60;76.80
2897;DHT22;1458;49.728;9.228;2023-12-20T12:28:27;7.70;75.80
2897;DHT22;1458;49.728;9.228;2023-12-20T12:30:57;7.80;75.80
2897;DHT22;1458;49.728;9.228;2023-12-20T12:33:25;7.70;74.90
2897;DHT22;1458;49.728;9.228;2023-12-20T12:35:53;7.70;75.40
2897;DHT22;1458;49.728;9.228;2023-12-20T12:38:21;7.60;73.70
2897;DHT22;1458;49.728;9.228;2023-12-20T12:40:49;7.60;74.60
2897;DHT22;1458;49.728;9.228;2023-12-20T12:43:19;7.50;74.60
2897;DHT22;1458;49.728;9.228;2023-12-20T12:45:50;7.60;75.50
2897;DHT22;1458;49.728;9.228;2023-12-20T12:48:19;7.60;73.70
2897;DHT22;1458;49.728;9.228;2023-12-20T12:50:46;7.40;74.60
2897;DHT22;1458;49.728;9.228;2023-12-20T12:53:14;7.40;73.70
2897;DHT22;1458;49.728;9.228;2023-12-20T12:55:42;7.40;75.50
2897;DHT22;1458;49.728;9.228;2023-12-20T12:58:09;7.40;75.00
2897;DHT22;1458;49.728;9.228;2023-12-20T13:00:37;7.50;74.10
2897;DHT22;1458;49.728;9.228;2023-12-20T13:03:06;7.20;74.40
2897;DHT22;1458;49.728;9.228;2023-12-20T13:05:34;7.10;75.30
2897;DHT22;1458;49.728;9.228;2023-12-20T13:08:02;7.10;76.00
2897;DHT22;1458;49.728;9.228;2023-12-20T13:10:29;7.10;75.40
2897;DHT22;1458;49.728;9.228;2023-12-20T13:12:58;7.10;75.50
2897;DHT22;1458;49.728;9.228;2023-12-20T13:15:26;7.20;74.60
2897;DHT22;1458;49.728;9.228;2023-12-20T13:17:54;7.20;75.40
2897;DHT22;1458;49.728;9.228;2023-12-20T13:20:23;7.20;75.50
2897;DHT22;1458;49.728;9.228;2023-12-20T13:22:51;7.20;76.60
2897;DHT22;1458;49.728;9.228;2023-12-20T13:25:19;7.20;75.80
2897;DHT22;1458;49.728;9.228;2023-12-20T13:27:47;7.30;76.90
2897;DHT22;1458;49.728;9.228;2023-12-20T13:30:16;7.30;77.90
2897;DHT22;1458;49.728;9.228;2023-12-20T13:32:44;7.30;76.80
2897;DHT22;1458;49.728;9.228;2023-12-20T13:35:12;7.30;77.80
2897;DHT22;1458;49.728;9.228;2023-12-20T13:37:41;7.40;77.80
2897;DHT22;1458;49.728;9.228;2023-12-20T13:40:11;7.40;76.70
2897;DHT22;1458;49.728;9.228;2023-12-20T13:42:39;7.30;77.70
2897;DHT22;1458;49.728;9.228;2023-12-20T13:45:07;7.20;76.90
2897;DHT22;1458;49.728;9.228;2023-12-20T13:47:35;7.30;77.60
2897;DHT22;1458;49.728;9.228;2023-12-20T13:50:03;7.30;77.60
2897;DHT22;1458;49.728;9.228;2023-12-20T13:52:31;7.30;77.50
2897;DHT22;1458;49.728;9.228;2023-12-20T13:55:01;7.40;78.50
2897;DHT22;1458;49.728;9.228;2023-12-20T13:57:31;7.40;76.60
2897;DHT22;1458;49.728;9.228;2023-12-20T13:59:59;7.30;77.80
2897;DHT22;1458;49.728;9.228;2023-12-20T14:02:27;7.20;78.50
2897;DHT22;1458;49.728;9.228;2023-12-20T14:04:54;7.20;78.20
2897;DHT22;1458;49.728;9.228;2023-12-20T14:07:22;7.30;78.00
2897;DHT22;1458;49.728;9.228;2023-12-20T14:09:49;7.40;77.10
2897;DHT22;1458;49.728;9.228;2023-12-20T14:12:19;7.30;77.40
2897;DHT22;1458;49.728;9.228;2023-12-20T14:14:46;7.20;77.10
2897;DHT22;1458;49.728;9.228;2023-12-20T14:17:13;7.20;77.70
2897;DHT22;1458;49.728;9.228;2023-12-20T14:19:41;7.30;77.70
2897;DHT22;1458;49.728;9.228;2023-12-20T14:22:10;7.30;77.50
2897;DHT22;1458;49.728;9.228;2023-12-20T14:24:43;7.30;77.30
2897;DHT22;1458;49.728;9.228;2023-12-20T14:27:11;7.30;77.10
2897;DHT22;1458;49.728;9.228;2023-12-20T14:29:41;7.30;77.50
2897;DHT22;1458;49.728;9.228;2023-12-20T14:32:08;7.20;77.40
2897;DHT22;1458;49.728;9.228;2023-12-20T14:34:36;7.10;77.50
2897;DHT22;1458;49.728;9.228;2023-12-20T14:37:04;7.10;77.30
2897;DHT22;1458;49.728;9.228;2023-12-20T14:39:31;7.00;78.30
2897;DHT22;1458;49.728;9.228;2023-12-20T14:41:59;7.10;78.00
2897;DHT22;1458;49.728;9.228;2023-12-20T14:44:28;7.00;78.50
2897;DHT22;1458;49.728;9.228;2023-12-20T14:46:58;6.90;77.80
2897;DHT22;1458;49.728;9.228;2023-12-20T14:49:28;6.80;78.90
2897;DHT22;1458;49.728;9.228;2023-12-20T14:51:56;6.80;77.80
2897;DHT22;1458;49.728;9.228;2023-12-20T14:54:24;6.70;78.70
2897;DHT22;1458;49.728;9.228;2023-12-20T14:56:52;6.60;78.80
2897;DHT22;1458;49.728;9.228;2023-12-20T14:59:20;6.50;79.20
2897;DHT22;1458;49.728;9.228;2023-12-20T15:01:48;6.60;78.80
2897;DHT22;1458;49.728;9.228;2023-12-20T15:04:17;6.50;79.10
2897;DHT22;1458;49.728;9.228;2023-12-20T15:06:52;6.50;78.80
2897;DHT22;1458;49.728;9.228;2023-12-20T15:09:27;6.50;79.80
2897;DHT22;1458;49.728;9.228;2023-12-20T15:11:57;6.50;79.60
2897;DHT22;1458;49.728;9.228;2023-12-20T15:14:25;6.40;79.30
2897;DHT22;1458;49.728;9.228;2023-12-20T15:16:54;6.30;79.60
2897;DHT22;1458;49.728;9.228;2023-12-20T15:19:23;6.20;80.30
2897;DHT22;1458;49.728;9.228;2023-12-20T15:21:51;6.30;80.70
2897;DHT22;1458;49.728;9.228;2023-12-20T15:24:19;6.40;80.80
2897;DHT22;1458;49.728;9.228;2023-12-20T15:26:54;6.40;81.00
2897;DHT22;1458;49.728;9.228;2023-12-20T15:29:30;6.40;81.00
2897;DHT22;1458;49.728;9.228;2023-12-20T15:31:58;6.40;81.20
2897;DHT22;1458;49.728;9.228;2023-12-20T15:34:27;6.50;81.00
2897;DHT22;1458;49.728;9.228;2023-12-20T15:36:53;6.50;81.10
2897;DHT22;1458;49.728;9.228;2023-12-20T15:39:21;6.50;80.90
2897;DHT22;1458;49.728;9.228;2023-12-20T15:41:48;6.50;80.20
2897;DHT22;1458;49.728;9.228;2023-12-20T15:44:16;6.40;80.30
2897;DHT22;1458;49.728;9.228;2023-12-20T15:46:43;6.40;81.50
2897;DHT22;1458;49.728;9.228;2023-12-20T15:49:11;6.50;81.50
2897;DHT22;1458;49.728;9.228;2023-12-20T15:51:40;6.50;80.90
2897;DHT22;1458;49.728;9.228;2023-12-20T15:54:07;6.50;81.40
2897;DHT22;1458;49.728;9.228;2023-12-20T15:56:35;6.50;81.00
2897;DHT22;1458;49.728;9.228;2023-12-20T15:59:03;6.60;80.50
2897;DHT22;1458;49.728;9.228;2023-12-20T16:01:31;6.60;79.80
2897;DHT22;1458;49.728;9.228;2023-12-20T16:03:58;6.70;80.10
2897;DHT22;1458;49.728;9.228;2023-12-20T16:06:26;6.60;80.30
2897;DHT22;1458;49.728;9.228;2023-12-20T16:08:55;6.60;80.40
2897;DHT22;1458;49.728;9.228;2023-12-20T16:11:23;6.60;80.60
2897;DHT22;1458;49.728;9.228;2023-12-20T16:13:50;6.70;80.50
2897;DHT22;1458;49.728;9.228;2023-12-20T16:16:18;6.60;81.20
2897;DHT22;1458;49.728;9.228;2023-12-20T16:18:46;6.60;81.20
2897;DHT22;1458;49.728;9.228;2023-12-20T16:21:13;6.70;81.20
2897;DHT22;1458;49.728;9.228;2023-12-20T16:23:42;6.70;81.50